Time;durP1;ratioP1;P1;durP2;ratioP2;P2;SDS_P1;SDS_P2;PMS_P1;PMS_P2;Temp;Humidity;BMP_temperature;BMP_pressure;BME280_temperature;BME280_humidity;BME280_pressure;Samples;Min_cycle;Max_cycle;Signal;HPM_P1;HPM_P2
2023/09/14 00:01:31;;;;;;;17.13;12.00;;;19.70;97.50;;;;;;4992541;28;20951;-64
2023/09/14 00:03:57;;;;;;;18.13;11.47;;;19.70;97.30;;;;;;4991778;28;20477;-64
2023/09/14 00:06:24;;;;;;;15.93;10.37;;;19.60;97.20;;;;;;4991794;28;20846;-64
2023/09/14 00:08:51;;;;;;;19.60;11.87;;;19.50;97.30;;;;;;4993614;28;21011;-64
2023/09/14 00:11:19;;;;;;;14.53;10.13;;;19.50;97.40;;;;;;4994408;28;20747;-64
2023/09/14 00:13:46;;;;;;;20.43;10.83;;;19.50;97.30;;;;;;4981624;28;20481;-65
2023/09/14 00:16:13;;;;;;;14.27;9.60;;;19.40;97.40;;;;;;4982603;28;20481;-64
2023/09/14 00:18:40;;;;;;;12.40;9.20;;;19.40;97.30;;;;;;4994248;28;20470;-64
2023/09/14 00:21:08;;;;;;;12.10;9.20;;;19.30;97.20;;;;;;4992067;28;21193;-64
2023/09/14 00:23:35;;;;;;;12.77;9.40;;;19.30;97.20;;;;;;4994283;28;20482;-64
2023/09/14 00:26:02;;;;;;;13.63;9.33;;;19.20;97.20;;;;;;4993142;28;20497;-65
2023/09/14 00:28:30;;;;;;;12.10;9.03;;;19.20;97.20;;;;;;4993018;28;21207;-65
2023/09/14 00:30:57;;;;;;;13.53;8.83;;;19.20;97.30;;;;;;4994061;28;20481;-65
2023/09/14 00:33:24;;;;;;;15.73;9.83;;;19.10;97.40;;;;;;4994739;28;20557;-65
2023/09/14 00:35:51;;;;;;;13.87;9.50;;;19.10;97.40;;;;;;4993897;28;20492;-64
2023/09/14 00:38:18;;;;;;;20.13;10.90;;;19.00;97.20;;;;;;4993505;28;20474;-64
2023/09/14 00:40:46;;;;;;;13.17;10.00;;;19.00;97.30;;;;;;4993540;28;20946;-64
2023/09/14 00:43:13;;;;;;;15.00;8.90;;;19.00;97.30;;;;;;4993944;28;20484;-65
2023/09/14 00:45:42;;;;;;;14.93;9.97;;;18.90;97.50;;;;;;4992015;28;20474;-64
2023/09/14 00:48:09;;;;;;;13.50;8.50;;;18.80;97.80;;;;;;4993408;28;20473;-64
2023/09/14 00:50:36;;;;;;;15.33;10.13;;;18.80;97.50;;;;;;4989388;28;20489;-64
2023/09/14 00:53:06;;;;;;;14.63;9.87;;;18.70;97.30;;;;;;4993233;28;21187;-64
2023/09/14 00:55:34;;;;;;;13.10;9.87;;;18.60;97.30;;;;;;4989426;28;20489;-64
2023/09/14 00:58:01;;;;;;;12.50;8.47;;;18.50;97.30;;;;;;4992312;28;20485;-65
2023/09/14 01:00:28;;;;;;;11.57;8.30;;;18.50;97.20;;;;;;4983768;28;20478;-64
2023/09/14 01:02:58;;;;;;;12.10;7.80;;;18.50;97.30;;;;;;4987273;28;20479;-65
2023/09/14 01:05:30;;;;;;;11.90;8.17;;;18.50;97.60;;;;;;4989901;28;20478;-65
2023/09/14 01:07:57;;;;;;;12.30;8.77;;;18.50;97.50;;;;;;4994034;28;20580;-65
2023/09/14 01:10:24;;;;;;;15.67;8.87;;;18.40;97.40;;;;;;4982383;28;20481;-65
2023/09/14 01:12:51;;;;;;;14.10;9.70;;;18.40;97.40;;;;;;5000285;28;20488;-65
2023/09/14 01:15:21;;;;;;;15.90;9.90;;;18.40;97.30;;;;;;4995538;28;20482;-65
2023/09/14 01:18:02;;;;;;;11.80;8.50;;;18.30;97.20;;;;;;4996611;28;20470;-65
2023/09/14 01:20:54;;;;;;;14.00;9.10;;;18.20;97.20;;;;;;4984955;28;20593;-65
2023/09/14 01:23:30;;;;;;;15.87;9.40;;;18.20;97.20;;;;;;4976482;28;20475;-65
2023/09/14 01:26:00;;;;;;;13.50;9.17;;;18.20;97.10;;;;;;4986422;28;20938;-65
2023/09/14 01:28:28;;;;;;;13.00;8.93;;;18.10;97.10;;;;;;4990581;28;20537;-65
2023/09/14 01:30:55;;;;;;;16.10;9.03;;;18.10;97.30;;;;;;5000569;28;20477;-65
2023/09/14 01:33:25;;;;;;;17.77;9.43;;;18.00;97.20;;;;;;4985004;28;20471;-65
2023/09/14 01:36:00;;;;;;;12.53;9.10;;;18.00;97.30;;;;;;4983572;28;20826;-65
2023/09/14 01:38:29;;;;;;;12.20;7.77;;;18.00;97.20;;;;;;4985159;28;20478;-65
2023/09/14 01:40:56;;;;;;;10.97;7.30;;;17.90;97.20;;;;;;4990872;28;20491;-65
2023/09/14 01:43:25;;;;;;;17.13;10.23;;;17.80;97.20;;;;;;4992995;28;20966;-65
2023/09/14 01:45:53;;;;;;;10.93;8.07;;;17.70;97.20;;;;;;4989305;28;20480;-65
2023/09/14 01:48:20;;;;;;;15.00;10.30;;;17.60;97.50;;;;;;5000578;28;20475;-65
2023/09/14 01:50:47;;;;;;;14.20;9.60;;;17.50;97.60;;;;;;4993441;28;20473;-65
2023/09/14 01:53:14;;;;;;;12.03;8.63;;;17.50;97.60;;;;;;4993317;28;20474;-65
2023/09/14 01:55:41;;;;;;;10.97;7.87;;;17.40;97.50;;;;;;4994958;28;20482;-65
2023/09/14 01:58:09;;;;;;;15.30;9.30;;;17.40;97.70;;;;;;4993972;28;20481;-65
2023/09/14 02:00:37;;;;;;;12.33;8.17;;;17.40;98.40;;;;;;4978859;28;20477;-65
2023/09/14 02:03:04;;;;;;;12.20;7.83;;;17.50;98.00;;;;;;4984773;28;20980;-65
2023/09/14 02:05:33;;;;;;;12.77;7.70;;;17.50;97.90;;;;;;4982594;28;20502;-65
2023/09/14 02:08:00;;;;;;;12.87;8.70;;;17.50;97.90;;;;;;4991894;28;20492;-65
2023/09/14 02:10:27;;;;;;;12.10;9.10;;;17.50;98.00;;;;;;4988827;28;21055;-65
2023/09/14 02:12:54;;;;;;;14.20;8.97;;;17.50;98.20;;;;;;4985486;28;20486;-65
2023/09/14 02:15:20;;;;;;;13.70;8.50;;;17.50;98.00;;;;;;4989910;28;20871;-66
2023/09/14 02:17:48;;;;;;;11.60;7.50;;;17.50;98.00;;;;;;4996115;28;20477;-65
2023/09/14 02:20:15;;;;;;;9.20;6.90;;;17.50;97.90;;;;;;4992707;28;20486;-65
2023/09/14 02:22:42;;;;;;;12.17;8.33;;;17.40;97.60;;;;;;4999825;28;20858;-65
2023/09/14 02:25:09;;;;;;;13.57;8.30;;;17.30;97.60;;;;;;4993879;28;20484;-65
2023/09/14 02:27:36;;;;;;;13.23;8.17;;;17.20;97.70;;;;;;4987315;28;20482;-65
2023/09/14 02:30:04;;;;;;;13.60;8.33;;;17.20;97.80;;;;;;4987737;28;20479;-65
2023/09/14 02:32:30;;;;;;;13.20;8.77;;;17.20;98.00;;;;;;4992061;28;20548;-65
2023/09/14 02:34:58;;;;;;;11.70;7.53;;;17.20;98.10;;;;;;4993889;28;20988;-66
2023/09/14 02:37:25;;;;;;;12.13;7.10;;;17.20;98.10;;;;;;4988929;28;20482;-66
2023/09/14 02:39:52;;;;;;;13.30;8.30;;;17.20;98.10;;;;;;4998176;28;21181;-65
2023/09/14 02:42:19;;;;;;;12.53;7.83;;;17.20;98.20;;;;;;4988691;28;20496;-66
2023/09/14 02:44:46;;;;;;;11.33;7.80;;;17.20;98.00;;;;;;4996812;28;20478;-65
2023/09/14 02:47:13;;;;;;;15.13;9.23;;;17.20;97.80;;;;;;4988252;28;20843;-65
2023/09/14 02:49:40;;;;;;;13.40;7.33;;;17.20;97.90;;;;;;4993791;28;20539;-65
2023/09/14 02:52:08;;;;;;;8.90;7.17;;;17.10;97.80;;;;;;4992359;28;20756;-65
2023/09/14 02:54:35;;;;;;;15.33;8.63;;;17.10;97.60;;;;;;4992721;28;20485;-65
2023/09/14 02:57:02;;;;;;;7.63;5.70;;;17.00;97.60;;;;;;4987623;28;20490;-65
2023/09/14 02:59:29;;;;;;;10.77;7.50;;;17.00;97.80;;;;;;4997730;28;20568;-65
2023/09/14 03:01:56;;;;;;;12.50;7.60;;;17.00;97.80;;;;;;4995308;28;20482;-66
2023/09/14 03:04:23;;;;;;;8.97;6.97;;;17.00;97.90;;;;;;4988347;28;20511;-65
2023/09/14 03:06:49;;;;;;;14.00;8.43;;;17.00;97.90;;;;;;4992159;28;20853;-65
2023/09/14 03:09:18;;;;;;;10.20;6.40;;;17.00;97.90;;;;;;4990415;28;20477;-65
2023/09/14 03:11:44;;;;;;;10.37;7.77;;;17.00;97.90;;;;;;4990120;28;20480;-65
2023/09/14 03:14:11;;;;;;;10.20;7.50;;;17.00;97.80;;;;;;5000735;28;20477;-66
2023/09/14 03:16:38;;;;;;;12.40;7.87;;;16.90;97.60;;;;;;4982406;28;20688;-65
2023/09/14 03:19:05;;;;;;;19.47;9.27;;;16.90;97.90;;;;;;4982240;28;21239;-65
2023/09/14 03:21:32;;;;;;;12.60;8.47;;;16.90;98.10;;;;;;4986940;28;20477;-65
2023/09/14 03:23:58;;;;;;;14.63;7.87;;;16.90;98.50;;;;;;4990439;28;20989;-65
2023/09/14 03:26:27;;;;;;;10.00;6.60;;;16.90;98.50;;;;;;4988722;28;20489;-65
2023/09/14 03:28:54;;;;;;;10.97;7.37;;;16.90;98.20;;;;;;4985503;28;20493;-64
2023/09/14 03:31:21;;;;;;;10.27;7.47;;;17.00;98.40;;;;;;4998188;28;20474;-64
2023/09/14 03:33:50;;;;;;;17.13;7.63;;;17.00;98.40;;;;;;4988940;28;20469;-64
2023/09/14 03:36:17;;;;;;;10.37;7.63;;;17.00;98.10;;;;;;5002307;28;20489;-65
2023/09/14 03:38:45;;;;;;;11.43;7.87;;;17.00;97.90;;;;;;4986758;28;20500;-64
2023/09/14 03:41:12;;;;;;;11.80;7.30;;;16.90;98.00;;;;;;4993803;28;20487;-64
2023/09/14 03:43:40;;;;;;;12.93;8.00;;;16.90;98.10;;;;;;4990769;28;20490;-64
2023/09/14 03:46:08;;;;;;;10.13;7.47;;;16.90;97.90;;;;;;4988596;28;21145;-65
2023/09/14 03:48:35;;;;;;;12.00;7.53;;;16.80;97.80;;;;;;4984861;28;20497;-65
2023/09/14 03:51:03;;;;;;;13.67;8.87;;;16.80;98.30;;;;;;4990595;28;21090;-64
2023/09/14 03:53:30;;;;;;;12.70;7.10;;;16.80;98.40;;;;;;4989543;28;21134;-64
2023/09/14 03:55:59;;;;;;;14.73;8.37;;;16.80;98.50;;;;;;4984563;28;20992;-64
2023/09/14 03:58:26;;;;;;;13.93;7.83;;;16.80;98.40;;;;;;4973727;28;20545;-64
2023/09/14 04:00:55;;;;;;;9.10;6.03;;;16.80;98.50;;;;;;4990070;28;21120;-64
2023/09/14 04:03:22;;;;;;;13.97;8.07;;;16.80;98.60;;;;;;5000135;28;20468;-64
2023/09/14 04:05:49;;;;;;;13.80;7.20;;;16.80;98.50;;;;;;4980157;28;20482;-64
2023/09/14 04:08:16;;;;;;;12.57;6.70;;;16.80;98.40;;;;;;4987518;28;20488;-64
2023/09/14 04:10:43;;;;;;;10.07;7.33;;;16.80;98.30;;;;;;4980588;28;20479;-64
2023/09/14 04:13:26;;;;;;;13.40;8.13;;;16.70;98.20;;;;;;5004660;28;20555;-64
2023/09/14 04:15:55;;;;;;;9.70;6.83;;;16.70;98.30;;;;;;4992776;28;20980;-64
2023/09/14 04:18:23;;;;;;;8.47;6.33;;;16.70;98.20;;;;;;4990723;28;20477;-64
2023/09/14 04:20:50;;;;;;;12.57;7.03;;;16.70;98.10;;;;;;4998427;28;20482;-64
2023/09/14 04:23:17;;;;;;;9.23;6.50;;;16.70;98.20;;;;;;4984489;28;20499;-64
2023/09/14 04:25:45;;;;;;;11.80;8.10;;;16.70;98.30;;;;;;4986629;28;20493;-64
2023/09/14 04:28:12;;;;;;;10.97;6.80;;;16.70;98.40;;;;;;4992782;28;20485;-65
2023/09/14 04:30:48;;;;;;;8.57;6.40;;;16.70;98.60;;;;;;4988460;28;21385;-64
2023/09/14 04:33:17;;;;;;;10.13;6.50;;;16.60;98.50;;;;;;4993510;28;21208;-65
2023/09/14 04:35:45;;;;;;;12.20;6.90;;;16.60;98.40;;;;;;4980927;28;21004;-65
2023/09/14 04:38:11;;;;;;;7.70;5.70;;;16.60;98.50;;;;;;4985487;28;20485;-65
2023/09/14 04:40:39;;;;;;;8.93;6.40;;;16.60;98.50;;;;;;4980810;28;20494;-65
2023/09/14 04:43:06;;;;;;;13.30;6.73;;;16.60;98.60;;;;;;4987762;28;20486;-65
2023/09/14 04:45:33;;;;;;;9.80;7.50;;;16.60;98.50;;;;;;4979918;28;20831;-65
2023/09/14 04:48:01;;;;;;;11.73;6.00;;;16.60;98.50;;;;;;4984666;28;20485;-65
2023/09/14 04:50:29;;;;;;;8.93;6.37;;;16.60;98.30;;;;;;5001674;28;20987;-65
2023/09/14 04:52:57;;;;;;;9.30;7.00;;;16.50;98.40;;;;;;4981318;28;20486;-65
2023/09/14 04:55:24;;;;;;;10.90;7.37;;;16.50;98.50;;;;;;4982204;28;20483;-65
2023/09/14 04:57:51;;;;;;;11.90;6.10;;;16.50;98.60;;;;;;4996631;28;20493;-65
2023/09/14 05:00:17;;;;;;;9.47;6.33;;;16.50;98.50;;;;;;4983488;28;20841;-65
2023/09/14 05:02:44;;;;;;;10.97;6.37;;;16.50;98.40;;;;;;4992651;28;20480;-65
2023/09/14 05:05:11;;;;;;;9.17;5.80;;;16.40;98.40;;;;;;4992837;28;20859;-65
2023/09/14 05:07:42;;;;;;;8.47;6.27;;;16.40;98.50;;;;;;5000391;28;20473;-65
2023/09/14 05:10:10;;;;;;;6.47;5.23;;;16.40;98.40;;;;;;4988276;28;20842;-65
2023/09/14 05:12:37;;;;;;;7.83;5.50;;;16.40;98.40;;;;;;4988673;28;20690;-65
2023/09/14 05:15:04;;;;;;;10.10;6.33;;;16.40;98.50;;;;;;4983593;28;20479;-65
2023/09/14 05:17:31;;;;;;;10.80;6.60;;;16.40;98.40;;;;;;4980641;28;20482;-65
2023/09/14 05:19:57;;;;;;;7.40;5.43;;;16.30;98.40;;;;;;4991916;28;20471;-65
2023/09/14 05:22:25;;;;;;;7.13;5.10;;;16.30;98.80;;;;;;4986491;28;20466;-65
2023/09/14 05:24:53;;;;;;;6.97;4.50;;;16.30;98.60;;;;;;4985973;28;20911;-65
2023/09/14 05:27:20;;;;;;;7.03;5.40;;;16.40;98.70;;;;;;4986273;28;20870;-65
2023/09/14 05:29:47;;;;;;;7.30;5.40;;;16.30;98.60;;;;;;4987767;28;20477;-65
2023/09/14 05:32:14;;;;;;;7.07;4.83;;;16.40;98.60;;;;;;4990906;28;20486;-65
2023/09/14 05:34:41;;;;;;;7.70;5.20;;;16.30;98.50;;;;;;4982374;28;20490;-65
2023/09/14 05:37:08;;;;;;;6.43;4.53;;;16.40;98.40;;;;;;4985441;28;20481;-65
2023/09/14 05:39:35;;;;;;;6.57;4.47;;;16.40;98.30;;;;;;4987220;28;21205;-65
2023/09/14 05:42:03;;;;;;;5.67;4.33;;;16.40;98.30;;;;;;5013654;28;20469;-65
2023/09/14 05:44:30;;;;;;;5.70;4.20;;;16.30;98.30;;;;;;4966624;28;20855;-66
2023/09/14 05:46:57;;;;;;;7.00;4.97;;;16.40;98.50;;;;;;4986716;28;20933;-66
2023/09/14 05:49:24;;;;;;;8.70;4.20;;;16.40;98.40;;;;;;4988246;28;20940;-66
2023/09/14 05:51:50;;;;;;;13.20;5.33;;;16.40;98.50;;;;;;4995014;28;20476;-65
2023/09/14 05:54:17;;;;;;;11.87;5.40;;;16.40;98.50;;;;;;4972387;28;20489;-65
2023/09/14 05:56:44;;;;;;;7.47;4.40;;;16.40;98.50;;;;;;5003850;28;20852;-64
2023/09/14 05:59:12;;;;;;;6.63;4.20;;;16.40;98.50;;;;;;4982938;28;20493;-65
2023/09/14 06:01:39;;;;;;;5.10;3.07;;;16.50;98.60;;;;;;4986327;28;20991;-64
2023/09/14 06:04:06;;;;;;;7.07;4.50;;;16.50;98.50;;;;;;4983532;28;20490;-65
2023/09/14 06:06:32;;;;;;;6.50;4.40;;;16.50;98.50;;;;;;4993175;28;20465;-64
2023/09/14 06:08:59;;;;;;;5.23;3.90;;;16.60;98.50;;;;;;4987761;28;20981;-65
2023/09/14 06:11:27;;;;;;;10.53;4.87;;;16.60;98.50;;;;;;4985780;28;21012;-64
2023/09/14 06:13:54;;;;;;;3.93;2.83;;;16.60;98.60;;;;;;5001435;28;20484;-64
2023/09/14 06:16:22;;;;;;;7.30;4.17;;;16.70;98.80;;;;;;4984420;28;20508;-65
2023/09/14 06:18:48;;;;;;;6.87;3.50;;;16.80;98.80;;;;;;4988938;28;20482;-64
2023/09/14 06:21:18;;;;;;;5.73;4.20;;;17.00;98.90;;;;;;4991034;28;21941;-65
2023/09/14 06:23:46;;;;;;;4.43;3.67;;;17.40;99.40;;;;;;4996347;28;20478;-64
2023/09/14 06:26:13;;;;;;;7.73;4.90;;;18.00;99.30;;;;;;4981292;28;20853;-65
2023/09/14 06:28:39;;;;;;;6.67;3.30;;;18.50;98.60;;;;;;4979471;28;20486;-65
2023/09/14 06:31:06;;;;;;;5.60;3.97;;;18.70;97.20;;;;;;4988888;28;20485;-64
2023/09/14 06:33:34;;;;;;;5.30;3.00;;;18.90;97.10;;;;;;4991530;28;20480;-64
2023/09/14 06:36:01;;;;;;;3.67;2.90;;;19.20;97.40;;;;;;4988307;28;20846;-64
2023/09/14 06:38:28;;;;;;;4.07;2.90;;;19.60;97.60;;;;;;4988719;28;21043;-65
2023/09/14 06:40:55;;;;;;;3.10;2.60;;;20.10;96.50;;;;;;4988606;28;20494;-65
2023/09/14 06:43:23;;;;;;;4.73;2.27;;;20.40;96.00;;;;;;4990697;28;20488;-64
2023/09/14 06:45:50;;;;;;;7.67;2.60;;;20.90;95.50;;;;;;4983084;28;20748;-64
2023/09/14 06:48:16;;;;;;;3.63;2.80;;;21.60;94.80;;;;;;4983620;28;21103;-65
2023/09/14 06:50:46;;;;;;;4.50;3.23;;;22.40;93.50;;;;;;4988098;28;20517;-65
2023/09/14 06:53:13;;;;;;;4.80;2.43;;;23.30;93.20;;;;;;4990596;28;20572;-65
2023/09/14 06:55:40;;;;;;;2.80;2.07;;;24.10;92.10;;;;;;4978717;28;20486;-65
2023/09/14 06:58:07;;;;;;;5.53;2.43;;;24.80;91.40;;;;;;4988556;28;20484;-64
2023/09/14 07:00:35;;;;;;;3.73;2.23;;;25.50;90.50;;;;;;4986450;28;20500;-65
2023/09/14 07:03:03;;;;;;;2.50;2.10;;;26.10;89.20;;;;;;4986628;28;20573;-65
2023/09/14 07:05:30;;;;;;;3.33;2.40;;;26.70;88.40;;;;;;4985920;28;20536;-65
2023/09/14 07:07:58;;;;;;;2.40;1.97;;;27.10;86.50;;;;;;4991457;28;20491;-65
2023/09/14 07:10:25;;;;;;;3.80;1.90;;;27.30;83.90;;;;;;4987198;28;20504;-65
2023/09/14 07:12:52;;;;;;;2.30;1.90;;;27.10;83.60;;;;;;4986356;28;20870;-65
2023/09/14 07:15:19;;;;;;;3.47;2.10;;;26.60;83.90;;;;;;4978429;28;20975;-65
2023/09/14 07:17:46;;;;;;;5.00;2.03;;;25.90;83.90;;;;;;4986433;28;20487;-65
2023/09/14 07:20:12;;;;;;;5.13;2.20;;;25.40;85.40;;;;;;4987769;28;20481;-65
2023/09/14 07:22:39;;;;;;;5.63;2.10;;;24.80;86.50;;;;;;4990300;28;20485;-65
2023/09/14 07:25:09;;;;;;;5.27;2.63;;;24.40;88.00;;;;;;4981528;28;21056;-65
2023/09/14 07:27:36;;;;;;;3.83;3.00;;;24.20;89.00;;;;;;4979701;28;20812;-65
2023/09/14 07:30:04;;;;;;;3.17;2.43;;;24.30;90.00;;;;;;4995467;28;20470;-65
2023/09/14 07:32:33;;;;;;;3.53;2.43;;;24.40;88.90;;;;;;4981039;28;20996;-65
2023/09/14 07:35:01;;;;;;;3.83;2.57;;;24.60;88.10;;;;;;4997687;28;20481;-65
2023/09/14 07:37:28;;;;;;;2.70;1.93;;;24.80;88.30;;;;;;4996231;28;20482;-65
2023/09/14 07:39:54;;;;;;;4.90;2.07;;;25.00;87.20;;;;;;4986630;28;20994;-65
2023/09/14 07:42:23;;;;;;;4.43;2.40;;;25.20;87.60;;;;;;4995109;28;20475;-66
2023/09/14 07:44:49;;;;;;;4.00;2.50;;;25.20;86.00;;;;;;4996629;28;20851;-66
2023/09/14 07:47:17;;;;;;;4.27;2.30;;;25.20;85.80;;;;;;4998484;28;20477;-66
2023/09/14 07:49:45;;;;;;;4.60;2.50;;;25.20;87.50;;;;;;4991024;28;21043;-65
2023/09/14 07:52:12;;;;;;;3.43;2.20;;;25.10;85.30;;;;;;4990460;28;20483;-65
2023/09/14 07:54:39;;;;;;;2.97;1.73;;;25.10;85.20;;;;;;4989083;28;22251;-65
2023/09/14 07:57:06;;;;;;;3.00;1.70;;;24.90;84.80;;;;;;4986144;28;20481;-65
2023/09/14 07:59:34;;;;;;;2.60;1.40;;;24.80;84.90;;;;;;4980450;28;20489;-65
2023/09/14 08:02:00;;;;;;;2.60;1.77;;;24.60;84.70;;;;;;4994091;28;20683;-65
2023/09/14 08:04:27;;;;;;;2.00;1.30;;;24.40;84.80;;;;;;4992773;28;21219;-66
2023/09/14 08:06:54;;;;;;;2.27;1.80;;;24.30;85.10;;;;;;4989887;28;20452;-66
2023/09/14 08:09:20;;;;;;;4.00;2.07;;;24.10;84.80;;;;;;4995603;28;20885;-66
2023/09/14 08:11:47;;;;;;;2.77;1.57;;;24.00;86.30;;;;;;4994603;28;20481;-66
2023/09/14 08:14:14;;;;;;;3.63;2.10;;;24.00;87.30;;;;;;4986817;28;20686;-65
2023/09/14 08:16:42;;;;;;;2.57;1.70;;;24.00;86.70;;;;;;4980221;28;20477;-65
2023/09/14 08:19:09;;;;;;;3.50;1.53;;;24.00;86.70;;;;;;4986821;28;20489;-65
2023/09/14 08:21:35;;;;;;;3.27;1.60;;;24.10;88.80;;;;;;4984764;28;21120;-65
2023/09/14 08:24:03;;;;;;;4.20;1.40;;;24.00;86.50;;;;;;4987436;28;21401;-65
2023/09/14 08:26:30;;;;;;;5.30;1.33;;;24.00;86.80;;;;;;4988085;28;20548;-65
2023/09/14 08:28:56;;;;;;;2.70;1.40;;;24.00;87.40;;;;;;4998035;28;21132;-64
2023/09/14 08:31:23;;;;;;;2.27;1.77;;;24.10;87.20;;;;;;4979775;28;20550;-65
2023/09/14 08:33:51;;;;;;;2.40;1.40;;;24.30;88.90;;;;;;4984730;28;20505;-65
2023/09/14 08:36:18;;;;;;;2.80;1.13;;;24.30;87.00;;;;;;4984333;28;20475;-65
2023/09/14 08:38:44;;;;;;;2.53;1.67;;;24.40;86.80;;;;;;4991674;28;20477;-65
2023/09/14 08:41:19;;;;;;;3.00;2.07;;;24.40;87.80;;;;;;4986098;28;20477;-65
2023/09/14 08:43:46;;;;;;;2.67;2.00;;;24.50;87.80;;;;;;4987285;28;20924;-65
2023/09/14 08:46:15;;;;;;;2.90;2.03;;;24.60;87.10;;;;;;4993101;28;20478;-65
2023/09/14 08:48:45;;;;;;;2.20;1.50;;;24.70;86.30;;;;;;4985817;28;20508;-65
2023/09/14 08:51:15;;;;;;;3.00;1.50;;;24.80;87.10;;;;;;4981185;28;20510;-65
2023/09/14 08:53:43;;;;;;;3.90;2.07;;;24.90;87.10;;;;;;4987186;28;21006;-65
2023/09/14 08:56:13;;;;;;;4.20;1.70;;;24.90;86.40;;;;;;4992997;28;20502;-65
2023/09/14 08:58:41;;;;;;;2.20;1.10;;;25.10;85.70;;;;;;4988220;28;20491;-65
2023/09/14 09:01:10;;;;;;;2.33;1.10;;;25.00;85.70;;;;;;4993735;28;20485;-65
2023/09/14 09:03:37;;;;;;;8.10;1.83;;;25.00;87.20;;;;;;4988650;28;20490;-65
2023/09/14 09:06:04;;;;;;;2.83;1.43;;;24.90;86.10;;;;;;4987582;28;20475;-65
2023/09/14 09:08:32;;;;;;;2.07;1.50;;;24.80;85.70;;;;;;4987084;28;20485;-65
2023/09/14 09:10:59;;;;;;;6.30;1.77;;;24.80;85.40;;;;;;4993325;28;20482;-65
2023/09/14 09:13:33;;;;;;;2.07;1.30;;;24.90;86.70;;;;;;4989338;28;20528;-65
2023/09/14 09:15:59;;;;;;;2.73;1.53;;;24.40;81.30;;;;;;4987637;28;20453;-66
2023/09/14 09:18:26;;;;;;;2.43;1.70;;;24.20;84.90;;;;;;4983741;28;20993;-65
2023/09/14 09:20:53;;;;;;;3.07;1.60;;;24.10;86.80;;;;;;4986799;28;20494;-65
2023/09/14 09:23:21;;;;;;;2.20;1.50;;;24.20;87.50;;;;;;5000828;28;20470;-66
2023/09/14 09:25:52;;;;;;;4.53;1.73;;;24.30;87.40;;;;;;4984997;28;20473;-66
2023/09/14 09:28:28;;;;;;;2.20;1.23;;;24.40;86.80;;;;;;4979090;28;20470;-66
2023/09/14 09:30:55;;;;;;;4.00;1.87;;;24.60;87.20;;;;;;4982194;28;20916;-66
2023/09/14 09:33:34;;;;;;;4.00;1.43;;;24.80;86.90;;;;;;4988951;28;20480;-66
2023/09/14 09:36:01;;;;;;;2.97;1.60;;;25.00;86.60;;;;;;4989040;28;20998;-66
2023/09/14 09:38:36;;;;;;;2.30;1.40;;;25.10;86.50;;;;;;4989478;28;20492;-66
2023/09/14 09:41:10;;;;;;;5.33;1.60;;;25.20;84.70;;;;;;4992115;28;20480;-66
2023/09/14 09:43:37;;;;;;;4.73;2.10;;;25.40;85.80;;;;;;4986667;28;20511;-66
2023/09/14 09:46:04;;;;;;;2.07;1.53;;;25.50;86.20;;;;;;4988890;28;20478;-66
2023/09/14 09:48:31;;;;;;;9.63;2.03;;;25.70;84.20;;;;;;4990193;28;20690;-66
2023/09/14 09:50:59;;;;;;;3.37;1.97;;;25.70;83.60;;;;;;4996934;28;20868;-66
2023/09/14 09:53:26;;;;;;;2.37;1.43;;;25.60;85.30;;;;;;4997358;28;20561;-66
2023/09/14 09:55:53;;;;;;;2.10;1.50;;;25.60;84.40;;;;;;4991069;28;20500;-66
2023/09/14 09:58:24;;;;;;;2.53;1.50;;;25.80;85.60;;;;;;4986880;28;20939;-66
2023/09/14 10:00:57;;;;;;;4.20;1.30;;;25.90;87.00;;;;;;4994404;28;20478;-66
2023/09/14 10:03:25;;;;;;;2.50;1.67;;;26.10;85.20;;;;;;4975487;28;20471;-66
2023/09/14 10:05:51;;;;;;;3.10;1.57;;;26.20;85.60;;;;;;4981689;28;20500;-66
2023/09/14 10:08:21;;;;;;;5.80;2.07;;;26.30;84.10;;;;;;5004315;28;21593;-66
2023/09/14 10:10:51;;;;;;;3.77;1.93;;;26.30;85.70;;;;;;4989691;28;20483;-67
2023/09/14 10:13:19;;;;;;;4.43;2.13;;;26.40;86.30;;;;;;4990136;28;20533;-67
2023/09/14 10:15:48;;;;;;;4.70;1.80;;;26.20;85.30;;;;;;4996736;28;20459;-67
2023/09/14 10:18:16;;;;;;;3.80;1.80;;;26.10;83.40;;;;;;4994507;28;20485;-67
2023/09/14 10:20:43;;;;;;;2.70;1.73;;;26.30;87.30;;;;;;4989754;28;20640;-67
2023/09/14 10:23:13;;;;;;;4.50;2.13;;;26.40;85.60;;;;;;4983651;28;20997;-66
2023/09/14 10:25:40;;;;;;;3.50;1.97;;;26.50;84.40;;;;;;4979429;28;20465;-65
2023/09/14 10:28:09;;;;;;;3.93;2.20;;;26.60;85.90;;;;;;4985436;28;20477;-65
2023/09/14 10:30:36;;;;;;;1.90;1.40;;;26.80;85.80;;;;;;4987582;28;20568;-66
2023/09/14 10:33:07;;;;;;;2.60;1.90;;;26.90;83.10;;;;;;4984531;28;20474;-66
2023/09/14 10:35:34;;;;;;;3.40;1.83;;;27.00;84.00;;;;;;4982221;28;20478;-66
2023/09/14 10:38:03;;;;;;;2.20;1.63;;;27.10;83.60;;;;;;4984450;28;20449;-66
2023/09/14 10:40:30;;;;;;;2.40;1.40;;;27.10;84.80;;;;;;4988202;28;20697;-66
2023/09/14 10:42:57;;;;;;;2.60;1.77;;;27.20;85.60;;;;;;4988351;28;20464;-66
2023/09/14 10:45:25;;;;;;;3.07;1.83;;;27.20;83.60;;;;;;4984518;28;20448;-66
2023/09/14 10:47:52;;;;;;;2.63;1.87;;;27.30;85.70;;;;;;4978506;28;20462;-66
2023/09/14 10:50:22;;;;;;;3.07;2.17;;;27.40;84.60;;;;;;4987044;28;20486;-66
2023/09/14 10:52:49;;;;;;;3.77;2.20;;;27.40;81.30;;;;;;4987882;28;20474;-66
2023/09/14 10:55:16;;;;;;;2.63;1.50;;;27.30;84.20;;;;;;4990686;28;20456;-66
2023/09/14 10:57:43;;;;;;;3.27;2.13;;;27.20;80.20;;;;;;4987749;28;20489;-65
2023/09/14 11:00:34;;;;;;;8.27;2.27;;;27.40;84.90;;;;;;4991166;28;20472;-66
2023/09/14 11:03:00;;;;;;;2.77;1.80;;;27.40;79.80;;;;;;4988438;28;20535;-66
2023/09/14 11:05:41;;;;;;;2.93;2.03;;;27.00;80.00;;;;;;4986350;28;20452;-66
2023/09/14 11:08:09;;;;;;;4.33;3.63;;;27.10;85.30;;;;;;4978928;28;20909;-65
2023/09/14 11:10:37;;;;;;;3.33;2.03;;;27.20;84.00;;;;;;4988700;28;20472;-66
2023/09/14 11:13:30;;;;;;;2.83;2.30;;;27.40;84.30;;;;;;4998253;28;20492;-66
2023/09/14 11:16:05;;;;;;;3.77;2.17;;;27.60;83.60;;;;;;4981375;28;20459;-66
2023/09/14 11:18:51;;;;;;;2.90;1.77;;;27.80;82.80;;;;;;4997100;28;20952;-66
2023/09/14 11:21:44;;;;;;;3.30;2.20;;;27.90;83.70;;;;;;4989150;28;20445;-66
2023/09/14 11:24:12;;;;;;;2.33;1.63;;;28.10;83.30;;;;;;4988357;28;20560;-66
2023/09/14 11:26:45;;;;;;;3.13;2.07;;;28.10;83.20;;;;;;4986006;28;20839;-66
2023/09/14 11:29:13;;;;;;;2.43;1.63;;;28.30;82.00;;;;;;4984307;28;20452;-66
2023/09/14 11:31:42;;;;;;;3.30;2.10;;;28.40;80.90;;;;;;4997197;28;20921;-66
2023/09/14 11:34:13;;;;;;;2.80;2.20;;;28.40;81.00;;;;;;4990641;28;20455;-66
2023/09/14 11:36:41;;;;;;;3.43;1.90;;;28.40;81.80;;;;;;4990780;28;20468;-66
2023/09/14 11:39:09;;;;;;;2.60;1.80;;;28.50;81.10;;;;;;4990996;28;20585;-66
2023/09/14 11:41:37;;;;;;;3.20;1.57;;;28.70;80.30;;;;;;4990288;28;20468;-66
2023/09/14 11:44:04;;;;;;;3.27;2.10;;;28.70;78.80;;;;;;4990055;28;20472;-67
2023/09/14 11:46:34;;;;;;;5.20;2.80;;;28.80;81.00;;;;;;4991848;28;20478;-67
2023/09/14 11:49:01;;;;;;;5.50;2.33;;;28.90;80.20;;;;;;4987965;28;20445;-67
2023/09/14 11:51:28;;;;;;;3.40;1.83;;;28.80;81.20;;;;;;4985649;28;20490;-67
2023/09/14 11:53:59;;;;;;;2.37;1.57;;;28.90;80.60;;;;;;4995036;28;20457;-67
2023/09/14 11:56:26;;;;;;;3.30;2.13;;;29.00;78.40;;;;;;4984910;28;20462;-67
2023/09/14 11:58:53;;;;;;;3.30;1.73;;;29.10;80.00;;;;;;4987076;28;20976;-67
2023/09/14 12:01:20;;;;;;;2.27;1.50;;;29.20;79.90;;;;;;4991958;28;20482;-67
2023/09/14 12:03:47;;;;;;;2.10;1.40;;;29.20;78.30;;;;;;4995477;28;20457;-67
2023/09/14 12:06:14;;;;;;;1.93;1.47;;;29.10;79.30;;;;;;4982030;28;20543;-67
2023/09/14 12:08:47;;;;;;;2.17;1.57;;;29.10;79.90;;;;;;4992983;28;20481;-67
2023/09/14 12:11:15;;;;;;;3.13;1.90;;;29.20;78.70;;;;;;4989714;28;20457;-67
2023/09/14 12:13:50;;;;;;;5.30;2.47;;;29.40;79.50;;;;;;5000481;28;20495;-67
2023/09/14 12:16:21;;;;;;;3.37;2.23;;;29.50;79.90;;;;;;4980937;28;20459;-67
2023/09/14 12:18:48;;;;;;;2.27;1.33;;;29.70;79.10;;;;;;5003913;28;20483;-66
2023/09/14 12:21:16;;;;;;;2.80;1.60;;;29.80;79.00;;;;;;4988261;28;20457;-68
2023/09/14 12:23:46;;;;;;;3.03;1.60;;;29.80;76.10;;;;;;4986657;28;20559;-67
2023/09/14 12:26:16;;;;;;;2.90;1.63;;;29.90;77.10;;;;;;4979009;28;20480;-67
2023/09/14 12:28:47;;;;;;;3.33;1.80;;;30.00;78.30;;;;;;4978345;28;20833;-66
2023/09/14 12:31:14;;;;;;;2.20;1.73;;;30.10;74.00;;;;;;4988597;28;20936;-67
2023/09/14 12:33:42;;;;;;;2.30;1.63;;;30.10;77.40;;;;;;4985347;28;20453;-66
2023/09/14 12:36:11;;;;;;;4.00;2.00;;;30.20;76.10;;;;;;4985629;28;20461;-67
2023/09/14 12:38:38;;;;;;;2.20;1.67;;;30.40;77.10;;;;;;4987046;28;20536;-66
2023/09/14 12:41:05;;;;;;;4.57;2.17;;;30.30;75.90;;;;;;4987163;28;20517;-67
2023/09/14 12:43:35;;;;;;;2.10;1.53;;;30.30;74.60;;;;;;4984255;28;20527;-67
2023/09/14 12:46:04;;;;;;;2.30;1.90;;;30.40;76.40;;;;;;4984600;28;21004;-68
2023/09/14 12:48:32;;;;;;;2.17;1.43;;;30.40;75.00;;;;;;4980912;28;20595;-67